sensor_id;sensor_type;location;lat;lon;timestamp;P1;durP1;ratioP1;P2;durP2;ratioP2
6689;SDS011;3382;51.576;8.076;2023-05-10T00:00:11;5.90;;;4.23;;
6689;SDS011;3382;51.576;8.076;2023-05-10T00:02:37;7.63;;;4.67;;
6689;SDS011;3382;51.576;8.076;2023-05-10T00:05:03;5.70;;;4.83;;
6689;SDS011;3382;51.576;8.076;2023-05-10T00:07:30;6.27;;;4.33;;
6689;SDS011;3382;51.576;8.076;2023-05-10T00:09:55;6.73;;;5.13;;
6689;SDS011;3382;51.576;8.076;2023-05-10T00:12:21;5.53;;;4.60;;
6689;SDS011;3382;51.576;8.076;2023-05-10T00:14:46;7.87;;;5.40;;
6689;SDS011;3382;51.576;8.076;2023-05-10T00:17:12;7.03;;;4.90;;
6689;SDS011;3382;51.576;8.076;2023-05-10T00:19:38;5.93;;;4.87;;
6689;SDS011;3382;51.576;8.076;2023-05-10T00:22:03;6.70;;;5.17;;
6689;SDS011;3382;51.576;8.076;2023-05-10T00:24:29;7.57;;;5.70;;
6689;SDS011;3382;51.576;8.076;2023-05-10T00:26:55;6.80;;;5.23;;
6689;SDS011;3382;51.576;8.076;2023-05-10T00:29:20;5.77;;;4.57;;
6689;SDS011;3382;51.576;8.076;2023-05-10T00:31:46;6.43;;;4.80;;
6689;SDS011;3382;51.576;8.076;2023-05-10T00:34:11;5.50;;;4.63;;
6689;SDS011;3382;51.576;8.076;2023-05-10T00:36:37;6.10;;;4.43;;
6689;SDS011;3382;51.576;8.076;2023-05-10T00:39:03;9.13;;;5.57;;
6689;SDS011;3382;51.576;8.076;2023-05-10T00:41:29;6.50;;;4.20;;
6689;SDS011;3382;51.576;8.076;2023-05-10T00:43:57;6.37;;;4.30;;
6689;SDS011;3382;51.576;8.076;2023-05-10T00:46:23;6.57;;;4.13;;
6689;SDS011;3382;51.576;8.076;2023-05-10T00:48:50;6.87;;;4.67;;
6689;SDS011;3382;51.576;8.076;2023-05-10T00:51:16;9.00;;;4.90;;
6689;SDS011;3382;51.576;8.076;2023-05-10T00:53:43;8.53;;;5.40;;
6689;SDS011;3382;51.576;8.076;2023-05-10T00:56:11;5.37;;;3.93;;
6689;SDS011;3382;51.576;8.076;2023-05-10T00:58:37;5.07;;;4.37;;
6689;SDS011;3382;51.576;8.076;2023-05-10T01:01:03;4.93;;;3.93;;
6689;SDS011;3382;51.576;8.076;2023-05-10T01:03:30;8.33;;;3.30;;
6689;SDS011;3382;51.576;8.076;2023-05-10T01:05:57;6.23;;;3.57;;
6689;SDS011;3382;51.576;8.076;2023-05-10T01:08:23;4.17;;;3.07;;
6689;SDS011;3382;51.576;8.076;2023-05-10T01:10:49;8.57;;;3.27;;
6689;SDS011;3382;51.576;8.076;2023-05-10T01:13:19;3.87;;;2.67;;
6689;SDS011;3382;51.576;8.076;2023-05-10T01:15:59;5.07;;;2.93;;
6689;SDS011;3382;51.576;8.076;2023-05-10T01:18:27;3.70;;;2.60;;
6689;SDS011;3382;51.576;8.076;2023-05-10T01:21:02;2.97;;;2.50;;
6689;SDS011;3382;51.576;8.076;2023-05-10T01:32:19;2.80;;;2.60;;
6689;SDS011;3382;51.576;8.076;2023-05-10T01:38:04;3.77;;;2.67;;
6689;SDS011;3382;51.576;8.076;2023-05-10T01:46:40;3.13;;;2.80;;
6689;SDS011;3382;51.576;8.076;2023-05-10T01:49:10;2.23;;;2.03;;
6689;SDS011;3382;51.576;8.076;2023-05-10T01:51:47;4.23;;;2.10;;
6689;SDS011;3382;51.576;8.076;2023-05-10T01:54:17;2.50;;;2.30;;
6689;SDS011;3382;51.576;8.076;2023-05-10T01:56:44;3.23;;;2.40;;
6689;SDS011;3382;51.576;8.076;2023-05-10T01:59:15;2.13;;;2.00;;
6689;SDS011;3382;51.576;8.076;2023-05-10T02:01:43;2.63;;;2.33;;
6689;SDS011;3382;51.576;8.076;2023-05-10T02:04:11;2.57;;;2.37;;
6689;SDS011;3382;51.576;8.076;2023-05-10T02:06:40;3.20;;;2.50;;
6689;SDS011;3382;51.576;8.076;2023-05-10T02:09:08;3.07;;;2.77;;
6689;SDS011;3382;51.576;8.076;2023-05-10T02:11:36;3.70;;;2.60;;
6689;SDS011;3382;51.576;8.076;2023-05-10T02:14:03;3.10;;;2.60;;
6689;SDS011;3382;51.576;8.076;2023-05-10T02:16:32;3.50;;;2.87;;
6689;SDS011;3382;51.576;8.076;2023-05-10T02:19:00;4.73;;;3.30;;
6689;SDS011;3382;51.576;8.076;2023-05-10T02:21:27;3.40;;;3.10;;
6689;SDS011;3382;51.576;8.076;2023-05-10T02:23:54;4.10;;;3.77;;
6689;SDS011;3382;51.576;8.076;2023-05-10T02:26:22;3.60;;;3.30;;
6689;SDS011;3382;51.576;8.076;2023-05-10T02:28:49;5.03;;;4.10;;
6689;SDS011;3382;51.576;8.076;2023-05-10T02:31:16;4.33;;;3.80;;
6689;SDS011;3382;51.576;8.076;2023-05-10T02:33:43;4.87;;;3.70;;
6689;SDS011;3382;51.576;8.076;2023-05-10T02:36:10;4.50;;;3.97;;
6689;SDS011;3382;51.576;8.076;2023-05-10T02:38:38;4.77;;;4.23;;
6689;SDS011;3382;51.576;8.076;2023-05-10T02:41:04;5.07;;;4.27;;
6689;SDS011;3382;51.576;8.076;2023-05-10T02:43:32;5.17;;;4.67;;
6689;SDS011;3382;51.576;8.076;2023-05-10T02:45:58;7.13;;;4.67;;
6689;SDS011;3382;51.576;8.076;2023-05-10T02:48:24;5.90;;;5.30;;
6689;SDS011;3382;51.576;8.076;2023-05-10T02:50:50;6.13;;;4.73;;
6689;SDS011;3382;51.576;8.076;2023-05-10T02:53:21;8.37;;;5.23;;
6689;SDS011;3382;51.576;8.076;2023-05-10T02:55:49;7.53;;;5.93;;
6689;SDS011;3382;51.576;8.076;2023-05-10T02:58:17;8.00;;;6.10;;
6689;SDS011;3382;51.576;8.076;2023-05-10T03:00:44;7.83;;;6.20;;
6689;SDS011;3382;51.576;8.076;2023-05-10T03:03:11;8.83;;;6.50;;
6689;SDS011;3382;51.576;8.076;2023-05-10T03:05:36;9.77;;;6.70;;
6689;SDS011;3382;51.576;8.076;2023-05-10T03:08:02;8.50;;;6.97;;
6689;SDS011;3382;51.576;8.076;2023-05-10T03:10:29;8.70;;;7.07;;
6689;SDS011;3382;51.576;8.076;2023-05-10T03:13:07;9.83;;;7.60;;
6689;SDS011;3382;51.576;8.076;2023-05-10T03:15:51;9.47;;;7.80;;
6689;SDS011;3382;51.576;8.076;2023-05-10T03:18:22;10.97;;;8.17;;
6689;SDS011;3382;51.576;8.076;2023-05-10T03:20:56;9.77;;;7.17;;
6689;SDS011;3382;51.576;8.076;2023-05-10T03:23:34;8.90;;;7.87;;
6689;SDS011;3382;51.576;8.076;2023-05-10T03:26:08;11.17;;;7.60;;
6689;SDS011;3382;51.576;8.076;2023-05-10T03:28:34;6.93;;;5.00;;
6689;SDS011;3382;51.576;8.076;2023-05-10T03:31:01;5.93;;;4.97;;
6689;SDS011;3382;51.576;8.076;2023-05-10T03:33:29;6.83;;;5.10;;
6689;SDS011;3382;51.576;8.076;2023-05-10T03:35:54;5.03;;;4.53;;
6689;SDS011;3382;51.576;8.076;2023-05-10T03:38:20;5.97;;;4.00;;
6689;SDS011;3382;51.576;8.076;2023-05-10T03:40:46;4.43;;;3.83;;
6689;SDS011;3382;51.576;8.076;2023-05-10T03:43:11;4.57;;;3.33;;
6689;SDS011;3382;51.576;8.076;2023-05-10T03:45:37;3.00;;;2.70;;
6689;SDS011;3382;51.576;8.076;2023-05-10T03:48:02;5.97;;;3.00;;
6689;SDS011;3382;51.576;8.076;2023-05-10T03:50:28;5.10;;;2.80;;
6689;SDS011;3382;51.576;8.076;2023-05-10T03:52:54;3.70;;;2.70;;
6689;SDS011;3382;51.576;8.076;2023-05-10T03:55:20;4.27;;;2.97;;
6689;SDS011;3382;51.576;8.076;2023-05-10T03:57:45;3.60;;;2.40;;
6689;SDS011;3382;51.576;8.076;2023-05-10T04:00:11;2.20;;;2.00;;
6689;SDS011;3382;51.576;8.076;2023-05-10T04:02:37;2.47;;;1.77;;
6689;SDS011;3382;51.576;8.076;2023-05-10T04:05:03;2.47;;;1.70;;
6689;SDS011;3382;51.576;8.076;2023-05-10T04:07:28;2.27;;;1.60;;
6689;SDS011;3382;51.576;8.076;2023-05-10T04:09:54;1.83;;;1.50;;
6689;SDS011;3382;51.576;8.076;2023-05-10T04:12:20;1.83;;;1.63;;
6689;SDS011;3382;51.576;8.076;2023-05-10T04:14:45;1.43;;;1.30;;
6689;SDS011;3382;51.576;8.076;2023-05-10T04:17:11;1.93;;;1.30;;
6689;SDS011;3382;51.576;8.076;2023-05-10T04:19:36;1.60;;;1.30;;
6689;SDS011;3382;51.576;8.076;2023-05-10T04:22:02;3.43;;;1.30;;
6689;SDS011;3382;51.576;8.076;2023-05-10T04:24:28;1.40;;;1.30;;
6689;SDS011;3382;51.576;8.076;2023-05-10T04:26:54;1.30;;;1.20;;
6689;SDS011;3382;51.576;8.076;2023-05-10T04:29:20;1.60;;;1.30;;
6689;SDS011;3382;51.576;8.076;2023-05-10T04:31:46;1.40;;;1.30;;
6689;SDS011;3382;51.576;8.076;2023-05-10T04:34:11;1.47;;;1.37;;
6689;SDS011;3382;51.576;8.076;2023-05-10T04:36:37;1.27;;;1.20;;
6689;SDS011;3382;51.576;8.076;2023-05-10T04:39:04;1.53;;;1.43;;
6689;SDS011;3382;51.576;8.076;2023-05-10T04:41:30;1.43;;;1.23;;
6689;SDS011;3382;51.576;8.076;2023-05-10T04:43:55;1.80;;;1.47;;
6689;SDS011;3382;51.576;8.076;2023-05-10T04:46:21;1.50;;;1.40;;
6689;SDS011;3382;51.576;8.076;2023-05-10T04:48:47;2.40;;;1.60;;
6689;SDS011;3382;51.576;8.076;2023-05-10T04:51:12;2.73;;;1.50;;
6689;SDS011;3382;51.576;8.076;2023-05-10T04:53:38;2.80;;;1.70;;
6689;SDS011;3382;51.576;8.076;2023-05-10T04:56:04;2.23;;;1.80;;
6689;SDS011;3382;51.576;8.076;2023-05-10T04:58:30;10.00;;;6.20;;
6689;SDS011;3382;51.576;8.076;2023-05-10T05:00:55;2.23;;;2.03;;
6689;SDS011;3382;51.576;8.076;2023-05-10T05:03:21;2.53;;;1.70;;
6689;SDS011;3382;51.576;8.076;2023-05-10T05:05:47;4.30;;;2.33;;
6689;SDS011;3382;51.576;8.076;2023-05-10T05:08:13;3.30;;;2.00;;
6689;SDS011;3382;51.576;8.076;2023-05-10T05:10:38;2.03;;;1.83;;
6689;SDS011;3382;51.576;8.076;2023-05-10T05:13:04;2.63;;;2.10;;
6689;SDS011;3382;51.576;8.076;2023-05-10T05:15:30;3.27;;;2.80;;
6689;SDS011;3382;51.576;8.076;2023-05-10T05:17:56;3.93;;;2.27;;
6689;SDS011;3382;51.576;8.076;2023-05-10T05:20:22;3.93;;;2.47;;
6689;SDS011;3382;51.576;8.076;2023-05-10T05:22:47;2.23;;;1.97;;
6689;SDS011;3382;51.576;8.076;2023-05-10T05:25:13;3.67;;;2.63;;
6689;SDS011;3382;51.576;8.076;2023-05-10T05:27:40;3.20;;;2.63;;
6689;SDS011;3382;51.576;8.076;2023-05-10T05:30:06;3.50;;;2.60;;
6689;SDS011;3382;51.576;8.076;2023-05-10T05:32:32;2.50;;;2.20;;
6689;SDS011;3382;51.576;8.076;2023-05-10T05:34:58;5.47;;;2.60;;
6689;SDS011;3382;51.576;8.076;2023-05-10T05:37:24;4.23;;;2.47;;
6689;SDS011;3382;51.576;8.076;2023-05-10T05:39:50;3.73;;;1.83;;
6689;SDS011;3382;51.576;8.076;2023-05-10T05:42:15;1.50;;;1.40;;
6689;SDS011;3382;51.576;8.076;2023-05-10T05:44:43;5.63;;;2.43;;
6689;SDS011;3382;51.576;8.076;2023-05-10T05:47:09;3.83;;;2.80;;
6689;SDS011;3382;51.576;8.076;2023-05-10T05:49:35;4.07;;;2.93;;
6689;SDS011;3382;51.576;8.076;2023-05-10T05:52:01;6.30;;;2.90;;
6689;SDS011;3382;51.576;8.076;2023-05-10T05:54:28;6.10;;;3.00;;
6689;SDS011;3382;51.576;8.076;2023-05-10T05:56:55;3.50;;;3.20;;
6689;SDS011;3382;51.576;8.076;2023-05-10T05:59:21;5.73;;;3.10;;
6689;SDS011;3382;51.576;8.076;2023-05-10T06:01:47;4.57;;;3.47;;
6689;SDS011;3382;51.576;8.076;2023-05-10T06:04:13;5.47;;;4.77;;
6689;SDS011;3382;51.576;8.076;2023-05-10T06:06:39;5.57;;;4.00;;
6689;SDS011;3382;51.576;8.076;2023-05-10T06:09:04;8.40;;;4.80;;
6689;SDS011;3382;51.576;8.076;2023-05-10T06:11:30;6.47;;;5.33;;
6689;SDS011;3382;51.576;8.076;2023-05-10T06:13:57;9.60;;;6.00;;
6689;SDS011;3382;51.576;8.076;2023-05-10T06:16:23;8.17;;;5.73;;
6689;SDS011;3382;51.576;8.076;2023-05-10T06:18:48;13.17;;;6.87;;
6689;SDS011;3382;51.576;8.076;2023-05-10T06:21:14;13.37;;;8.53;;
6689;SDS011;3382;51.576;8.076;2023-05-10T06:23:41;10.27;;;7.80;;
6689;SDS011;3382;51.576;8.076;2023-05-10T06:26:06;11.30;;;8.40;;
6689;SDS011;3382;51.576;8.076;2023-05-10T06:28:32;13.00;;;9.43;;
6689;SDS011;3382;51.576;8.076;2023-05-10T06:30:58;14.03;;;10.33;;
6689;SDS011;3382;51.576;8.076;2023-05-10T06:33:24;14.13;;;9.70;;
6689;SDS011;3382;51.576;8.076;2023-05-10T06:35:50;13.53;;;9.63;;
6689;SDS011;3382;51.576;8.076;2023-05-10T06:38:16;15.37;;;9.87;;
6689;SDS011;3382;51.576;8.076;2023-05-10T06:40:42;12.50;;;9.10;;
6689;SDS011;3382;51.576;8.076;2023-05-10T06:43:07;14.20;;;9.30;;
6689;SDS011;3382;51.576;8.076;2023-05-10T06:45:33;15.83;;;8.97;;
6689;SDS011;3382;51.576;8.076;2023-05-10T06:47:59;14.00;;;8.37;;
6689;SDS011;3382;51.576;8.076;2023-05-10T06:50:25;13.57;;;9.27;;
6689;SDS011;3382;51.576;8.076;2023-05-10T06:52:50;12.33;;;8.70;;
6689;SDS011;3382;51.576;8.076;2023-05-10T06:55:16;15.17;;;10.57;;
6689;SDS011;3382;51.576;8.076;2023-05-10T06:57:42;15.37;;;11.07;;
6689;SDS011;3382;51.576;8.076;2023-05-10T07:00:08;14.83;;;11.73;;
6689;SDS011;3382;51.576;8.076;2023-05-10T07:02:34;19.37;;;12.77;;
6689;SDS011;3382;51.576;8.076;2023-05-10T07:05:00;17.53;;;12.50;;
6689;SDS011;3382;51.576;8.076;2023-05-10T07:07:27;16.37;;;11.53;;
6689;SDS011;3382;51.576;8.076;2023-05-10T07:09:52;19.77;;;14.23;;
6689;SDS011;3382;51.576;8.076;2023-05-10T07:12:18;19.50;;;13.40;;
6689;SDS011;3382;51.576;8.076;2023-05-10T07:14:44;17.43;;;12.53;;
6689;SDS011;3382;51.576;8.076;2023-05-10T07:17:10;20.47;;;14.07;;
6689;SDS011;3382;51.576;8.076;2023-05-10T07:19:36;23.67;;;14.13;;
6689;SDS011;3382;51.576;8.076;2023-05-10T07:22:01;22.30;;;14.50;;
6689;SDS011;3382;51.576;8.076;2023-05-10T07:24:27;20.73;;;14.63;;
6689;SDS011;3382;51.576;8.076;2023-05-10T07:26:53;21.83;;;14.67;;
6689;SDS011;3382;51.576;8.076;2023-05-10T07:29:18;24.13;;;15.67;;
6689;SDS011;3382;51.576;8.076;2023-05-10T07:31:44;20.83;;;15.43;;
6689;SDS011;3382;51.576;8.076;2023-05-10T07:34:09;22.33;;;14.07;;
6689;SDS011;3382;51.576;8.076;2023-05-10T07:36:35;21.53;;;14.07;;
6689;SDS011;3382;51.576;8.076;2023-05-10T07:39:01;18.67;;;12.80;;
6689;SDS011;3382;51.576;8.076;2023-05-10T07:41:27;23.50;;;16.07;;
6689;SDS011;3382;51.576;8.076;2023-05-10T07:43:53;20.83;;;14.73;;
6689;SDS011;3382;51.576;8.076;2023-05-10T07:46:19;20.13;;;13.50;;
6689;SDS011;3382;51.576;8.076;2023-05-10T07:48:44;14.80;;;10.77;;
6689;SDS011;3382;51.576;8.076;2023-05-10T07:51:10;5.83;;;4.57;;
6689;SDS011;3382;51.576;8.076;2023-05-10T07:53:37;21.53;;;16.10;;
6689;SDS011;3382;51.576;8.076;2023-05-10T07:58:57;22.90;;;15.77;;
6689;SDS011;3382;51.576;8.076;2023-05-10T08:01:23;13.97;;;9.93;;
6689;SDS011;3382;51.576;8.076;2023-05-10T08:03:49;23.73;;;16.57;;
6689;SDS011;3382;51.576;8.076;2023-05-10T08:06:16;19.03;;;14.63;;
6689;SDS011;3382;51.576;8.076;2023-05-10T08:08:43;15.40;;;11.23;;
6689;SDS011;3382;51.576;8.076;2023-05-10T08:11:13;17.60;;;14.07;;
6689;SDS011;3382;51.576;8.076;2023-05-10T08:13:40;9.97;;;7.77;;
6689;SDS011;3382;51.576;8.076;2023-05-10T08:16:05;21.00;;;15.10;;
6689;SDS011;3382;51.576;8.076;2023-05-10T08:18:32;2.47;;;1.90;;
6689;SDS011;3382;51.576;8.076;2023-05-10T08:20:57;7.10;;;4.63;;
6689;SDS011;3382;51.576;8.076;2023-05-10T08:23:23;4.03;;;3.63;;
6689;SDS011;3382;51.576;8.076;2023-05-10T08:25:49;1.77;;;1.30;;
6689;SDS011;3382;51.576;8.076;2023-05-10T08:28:14;6.27;;;5.40;;
6689;SDS011;3382;51.576;8.076;2023-05-10T08:30:40;2.77;;;2.23;;
6689;SDS011;3382;51.576;8.076;2023-05-10T08:33:05;14.60;;;11.30;;
6689;SDS011;3382;51.576;8.076;2023-05-10T08:35:31;4.93;;;4.30;;
6689;SDS011;3382;51.576;8.076;2023-05-10T08:37:58;16.37;;;11.70;;
6689;SDS011;3382;51.576;8.076;2023-05-10T08:40:23;24.87;;;18.43;;
6689;SDS011;3382;51.576;8.076;2023-05-10T08:43:03;12.40;;;9.27;;
6689;SDS011;3382;51.576;8.076;2023-05-10T08:45:32;26.97;;;19.87;;
6689;SDS011;3382;51.576;8.076;2023-05-10T08:48:04;23.90;;;19.20;;
6689;SDS011;3382;51.576;8.076;2023-05-10T08:50:32;2.00;;;1.50;;
6689;SDS011;3382;51.576;8.076;2023-05-10T08:53:04;4.33;;;3.43;;
6689;SDS011;3382;51.576;8.076;2023-05-10T08:55:36;5.43;;;4.63;;
6689;SDS011;3382;51.576;8.076;2023-05-10T08:58:04;12.33;;;10.40;;
6689;SDS011;3382;51.576;8.076;2023-05-10T09:00:30;24.87;;;18.00;;
6689;SDS011;3382;51.576;8.076;2023-05-10T09:02:57;25.53;;;16.97;;
6689;SDS011;3382;51.576;8.076;2023-05-10T09:05:23;9.13;;;7.23;;
6689;SDS011;3382;51.576;8.076;2023-05-10T09:07:49;13.93;;;10.73;;
6689;SDS011;3382;51.576;8.076;2023-05-10T09:10:14;15.50;;;11.83;;
6689;SDS011;3382;51.576;8.076;2023-05-10T09:12:40;14.37;;;11.27;;
6689;SDS011;3382;51.576;8.076;2023-05-10T09:15:09;16.40;;;13.63;;
6689;SDS011;3382;51.576;8.076;2023-05-10T09:17:35;5.60;;;4.47;;
6689;SDS011;3382;51.576;8.076;2023-05-10T09:20:02;9.30;;;6.83;;
6689;SDS011;3382;51.576;8.076;2023-05-10T09:22:32;16.00;;;12.43;;
6689;SDS011;3382;51.576;8.076;2023-05-10T09:27:31;1.80;;;1.70;;
6689;SDS011;3382;51.576;8.076;2023-05-10T09:29:57;8.33;;;7.33;;
6689;SDS011;3382;51.576;8.076;2023-05-10T09:32:35;6.03;;;5.27;;
6689;SDS011;3382;51.576;8.076;2023-05-10T09:35:12;5.90;;;5.13;;
6689;SDS011;3382;51.576;8.076;2023-05-10T09:37:39;6.13;;;4.93;;
6689;SDS011;3382;51.576;8.076;2023-05-10T09:40:12;2.63;;;2.23;;
6689;SDS011;3382;51.576;8.076;2023-05-10T09:42:42;13.33;;;11.07;;
6689;SDS011;3382;51.576;8.076;2023-05-10T09:45:23;3.43;;;2.77;;
6689;SDS011;3382;51.576;8.076;2023-05-10T09:47:50;7.97;;;5.73;;
6689;SDS011;3382;51.576;8.076;2023-05-10T09:50:16;10.63;;;9.20;;
6689;SDS011;3382;51.576;8.076;2023-05-10T09:55:25;1.47;;;1.37;;
6689;SDS011;3382;51.576;8.076;2023-05-10T09:58:02;6.40;;;5.27;;
6689;SDS011;3382;51.576;8.076;2023-05-10T10:00:34;11.27;;;8.97;;
6689;SDS011;3382;51.576;8.076;2023-05-10T10:03:01;13.93;;;10.40;;
6689;SDS011;3382;51.576;8.076;2023-05-10T10:05:34;11.20;;;9.40;;
6689;SDS011;3382;51.576;8.076;2023-05-10T10:08:02;13.87;;;10.27;;
6689;SDS011;3382;51.576;8.076;2023-05-10T10:10:29;3.93;;;3.53;;
6689;SDS011;3382;51.576;8.076;2023-05-10T10:12:57;12.83;;;10.33;;
6689;SDS011;3382;51.576;8.076;2023-05-10T10:15:23;14.57;;;9.57;;
6689;SDS011;3382;51.576;8.076;2023-05-10T10:17:49;12.17;;;9.37;;
6689;SDS011;3382;51.576;8.076;2023-05-10T10:20:16;9.37;;;7.70;;
6689;SDS011;3382;51.576;8.076;2023-05-10T10:22:42;10.90;;;8.80;;
6689;SDS011;3382;51.576;8.076;2023-05-10T10:25:09;6.37;;;5.20;;
6689;SDS011;3382;51.576;8.076;2023-05-10T10:35:39;9.37;;;6.97;;
6689;SDS011;3382;51.576;8.076;2023-05-10T10:38:05;7.77;;;5.87;;
6689;SDS011;3382;51.576;8.076;2023-05-10T10:40:33;3.97;;;3.57;;
6689;SDS011;3382;51.576;8.076;2023-05-10T10:48:38;14.77;;;9.73;;
6689;SDS011;3382;51.576;8.076;2023-05-10T10:51:05;14.77;;;9.80;;
6689;SDS011;3382;51.576;8.076;2023-05-10T10:53:31;15.27;;;10.47;;
6689;SDS011;3382;51.576;8.076;2023-05-10T10:56:07;12.27;;;8.93;;
6689;SDS011;3382;51.576;8.076;2023-05-10T10:58:34;9.57;;;7.47;;
6689;SDS011;3382;51.576;8.076;2023-05-10T11:01:17;6.10;;;3.27;;
6689;SDS011;3382;51.576;8.076;2023-05-10T11:06:36;1.83;;;1.73;;
6689;SDS011;3382;51.576;8.076;2023-05-10T11:09:05;10.43;;;7.03;;
6689;SDS011;3382;51.576;8.076;2023-05-10T11:11:32;5.53;;;4.57;;
6689;SDS011;3382;51.576;8.076;2023-05-10T11:14:03;4.63;;;4.17;;
6689;SDS011;3382;51.576;8.076;2023-05-10T11:16:41;11.30;;;7.07;;
6689;SDS011;3382;51.576;8.076;2023-05-10T11:19:10;6.83;;;4.33;;
6689;SDS011;3382;51.576;8.076;2023-05-10T11:22:11;5.60;;;3.83;;
6689;SDS011;3382;51.576;8.076;2023-05-10T11:24:38;6.70;;;4.37;;
6689;SDS011;3382;51.576;8.076;2023-05-10T11:27:04;5.73;;;4.43;;
6689;SDS011;3382;51.576;8.076;2023-05-10T11:29:30;2.33;;;2.13;;
6689;SDS011;3382;51.576;8.076;2023-05-10T11:31:56;6.30;;;5.10;;
6689;SDS011;3382;51.576;8.076;2023-05-10T11:34:24;7.23;;;5.90;;
6689;SDS011;3382;51.576;8.076;2023-05-10T11:36:51;8.10;;;6.03;;
6689;SDS011;3382;51.576;8.076;2023-05-10T11:39:18;9.97;;;6.83;;
6689;SDS011;3382;51.576;8.076;2023-05-10T11:41:46;8.80;;;6.90;;
6689;SDS011;3382;51.576;8.076;2023-05-10T11:44:13;2.47;;;2.27;;
6689;SDS011;3382;51.576;8.076;2023-05-10T11:46:39;13.37;;;9.27;;
6689;SDS011;3382;51.576;8.076;2023-05-10T11:49:06;12.13;;;8.90;;
6689;SDS011;3382;51.576;8.076;2023-05-10T11:51:33;5.00;;;3.63;;
6689;SDS011;3382;51.576;8.076;2023-05-10T11:54:07;2.93;;;2.63;;
6689;SDS011;3382;51.576;8.076;2023-05-10T11:56:34;9.03;;;7.00;;
6689;SDS011;3382;51.576;8.076;2023-05-10T11:59:00;2.20;;;2.00;;
6689;SDS011;3382;51.576;8.076;2023-05-10T12:01:27;5.67;;;4.80;;
6689;SDS011;3382;51.576;8.076;2023-05-10T12:03:55;2.20;;;2.00;;
6689;SDS011;3382;51.576;8.076;2023-05-10T12:06:25;4.53;;;2.67;;
6689;SDS011;3382;51.576;8.076;2023-05-10T12:08:52;1.67;;;1.57;;
6689;SDS011;3382;51.576;8.076;2023-05-10T12:11:18;8.10;;;6.50;;
6689;SDS011;3382;51.576;8.076;2023-05-10T12:13:45;2.60;;;2.03;;
6689;SDS011;3382;51.576;8.076;2023-05-10T12:16:22;4.07;;;3.67;;
6689;SDS011;3382;51.576;8.076;2023-05-10T12:18:49;1.90;;;1.57;;
6689;SDS011;3382;51.576;8.076;2023-05-10T12:21:16;2.57;;;2.20;;
6689;SDS011;3382;51.576;8.076;2023-05-10T12:23:43;3.00;;;2.47;;
6689;SDS011;3382;51.576;8.076;2023-05-10T12:26:10;5.33;;;3.63;;
6689;SDS011;3382;51.576;8.076;2023-05-10T12:28:36;1.80;;;1.70;;
6689;SDS011;3382;51.576;8.076;2023-05-10T12:31:05;2.93;;;2.67;;
6689;SDS011;3382;51.576;8.076;2023-05-10T12:33:35;4.47;;;3.90;;
6689;SDS011;3382;51.576;8.076;2023-05-10T12:36:04;4.93;;;3.40;;
6689;SDS011;3382;51.576;8.076;2023-05-10T12:38:34;1.97;;;1.83;;
6689;SDS011;3382;51.576;8.076;2023-05-10T12:41:00;10.10;;;7.83;;
6689;SDS011;3382;51.576;8.076;2023-05-10T12:43:28;4.47;;;3.30;;
6689;SDS011;3382;51.576;8.076;2023-05-10T12:45:54;12.07;;;7.63;;
6689;SDS011;3382;51.576;8.076;2023-05-10T12:48:19;9.40;;;6.80;;
6689;SDS011;3382;51.576;8.076;2023-05-10T12:50:45;3.67;;;3.30;;
6689;SDS011;3382;51.576;8.076;2023-05-10T12:53:12;8.43;;;5.40;;
6689;SDS011;3382;51.576;8.076;2023-05-10T12:55:40;16.27;;;11.10;;
6689;SDS011;3382;51.576;8.076;2023-05-10T12:58:09;13.77;;;10.60;;
6689;SDS011;3382;51.576;8.076;2023-05-10T13:00:34;14.67;;;10.03;;
6689;SDS011;3382;51.576;8.076;2023-05-10T13:03:02;10.90;;;7.40;;
6689;SDS011;3382;51.576;8.076;2023-05-10T13:05:32;2.40;;;2.20;;
6689;SDS011;3382;51.576;8.076;2023-05-10T13:07:58;10.13;;;7.37;;
6689;SDS011;3382;51.576;8.076;2023-05-10T13:10:23;12.07;;;9.03;;
6689;SDS011;3382;51.576;8.076;2023-05-10T13:12:50;2.60;;;2.40;;
6689;SDS011;3382;51.576;8.076;2023-05-10T13:15:15;1.80;;;1.70;;
6689;SDS011;3382;51.576;8.076;2023-05-10T13:17:41;3.47;;;3.07;;
6689;SDS011;3382;51.576;8.076;2023-05-10T13:20:07;1.90;;;1.80;;
6689;SDS011;3382;51.576;8.076;2023-05-10T13:22:34;7.20;;;5.20;;
6689;SDS011;3382;51.576;8.076;2023-05-10T13:25:00;2.47;;;1.80;;
6689;SDS011;3382;51.576;8.076;2023-05-10T13:27:26;2.73;;;2.40;;
6689;SDS011;3382;51.576;8.076;2023-05-10T13:29:52;7.63;;;5.83;;
6689;SDS011;3382;51.576;8.076;2023-05-10T13:32:17;3.63;;;3.30;;
6689;SDS011;3382;51.576;8.076;2023-05-10T13:34:43;3.17;;;2.70;;
6689;SDS011;3382;51.576;8.076;2023-05-10T13:37:09;6.17;;;4.50;;
6689;SDS011;3382;51.576;8.076;2023-05-10T13:39:34;2.53;;;1.70;;
6689;SDS011;3382;51.576;8.076;2023-05-10T13:42:02;8.57;;;7.57;;
6689;SDS011;3382;51.576;8.076;2023-05-10T13:44:28;3.80;;;2.80;;
6689;SDS011;3382;51.576;8.076;2023-05-10T13:46:54;2.20;;;2.00;;
6689;SDS011;3382;51.576;8.076;2023-05-10T13:49:20;2.43;;;2.20;;
6689;SDS011;3382;51.576;8.076;2023-05-10T13:51:46;2.47;;;1.80;;
6689;SDS011;3382;51.576;8.076;2023-05-10T13:54:12;2.30;;;2.10;;
6689;SDS011;3382;51.576;8.076;2023-05-10T13:56:38;6.50;;;4.73;;
6689;SDS011;3382;51.576;8.076;2023-05-10T13:59:05;4.67;;;3.93;;
6689;SDS011;3382;51.576;8.076;2023-05-10T14:01:31;8.57;;;5.97;;
6689;SDS011;3382;51.576;8.076;2023-05-10T14:03:56;6.30;;;4.53;;
6689;SDS011;3382;51.576;8.076;2023-05-10T14:06:22;7.83;;;5.70;;
6689;SDS011;3382;51.576;8.076;2023-05-10T14:08:48;7.40;;;6.30;;
6689;SDS011;3382;51.576;8.076;2023-05-10T14:11:13;5.93;;;5.30;;
6689;SDS011;3382;51.576;8.076;2023-05-10T14:13:39;3.40;;;2.03;;
6689;SDS011;3382;51.576;8.076;2023-05-10T14:16:05;8.37;;;4.77;;
6689;SDS011;3382;51.576;8.076;2023-05-10T14:18:30;2.00;;;1.70;;
6689;SDS011;3382;51.576;8.076;2023-05-10T14:20:56;4.23;;;3.40;;
6689;SDS011;3382;51.576;8.076;2023-05-10T14:23:22;2.00;;;1.80;;
6689;SDS011;3382;51.576;8.076;2023-05-10T14:25:51;1.97;;;1.80;;
6689;SDS011;3382;51.576;8.076;2023-05-10T14:28:17;3.43;;;2.77;;
6689;SDS011;3382;51.576;8.076;2023-05-10T14:30:43;3.10;;;2.80;;
6689;SDS011;3382;51.576;8.076;2023-05-10T14:33:09;4.43;;;3.40;;
6689;SDS011;3382;51.576;8.076;2023-05-10T14:35:35;7.07;;;3.57;;
6689;SDS011;3382;51.576;8.076;2023-05-10T14:38:01;5.93;;;3.97;;
6689;SDS011;3382;51.576;8.076;2023-05-10T14:40:28;6.13;;;4.13;;
6689;SDS011;3382;51.576;8.076;2023-05-10T14:42:54;6.03;;;4.47;;
6689;SDS011;3382;51.576;8.076;2023-05-10T14:45:21;3.83;;;3.40;;
6689;SDS011;3382;51.576;8.076;2023-05-10T14:47:47;5.73;;;3.73;;
6689;SDS011;3382;51.576;8.076;2023-05-10T14:50:13;5.37;;;3.53;;
6689;SDS011;3382;51.576;8.076;2023-05-10T14:52:39;4.03;;;3.23;;
6689;SDS011;3382;51.576;8.076;2023-05-10T14:55:05;4.03;;;3.50;;
6689;SDS011;3382;51.576;8.076;2023-05-10T14:57:31;6.27;;;3.90;;
6689;SDS011;3382;51.576;8.076;2023-05-10T14:59:57;5.67;;;3.80;;
6689;SDS011;3382;51.576;8.076;2023-05-10T15:02:26;5.83;;;4.00;;
6689;SDS011;3382;51.576;8.076;2023-05-10T15:04:51;4.37;;;3.63;;
6689;SDS011;3382;51.576;8.076;2023-05-10T15:07:17;9.10;;;4.37;;
6689;SDS011;3382;51.576;8.076;2023-05-10T15:09:43;8.07;;;4.60;;
6689;SDS011;3382;51.576;8.076;2023-05-10T15:12:09;6.20;;;4.67;;
6689;SDS011;3382;51.576;8.076;2023-05-10T15:14:35;5.37;;;4.33;;
6689;SDS011;3382;51.576;8.076;2023-05-10T15:17:01;6.13;;;3.70;;
6689;SDS011;3382;51.576;8.076;2023-05-10T15:19:27;5.03;;;4.03;;
6689;SDS011;3382;51.576;8.076;2023-05-10T15:21:54;4.90;;;4.27;;
6689;SDS011;3382;51.576;8.076;2023-05-10T15:24:20;6.40;;;4.60;;
6689;SDS011;3382;51.576;8.076;2023-05-10T15:26:46;4.40;;;4.00;;
6689;SDS011;3382;51.576;8.076;2023-05-10T15:29:12;6.10;;;4.37;;
6689;SDS011;3382;51.576;8.076;2023-05-10T15:31:44;4.80;;;4.23;;
6689;SDS011;3382;51.576;8.076;2023-05-10T15:34:10;6.43;;;4.83;;
6689;SDS011;3382;51.576;8.076;2023-05-10T15:36:36;6.00;;;5.03;;
6689;SDS011;3382;51.576;8.076;2023-05-10T15:39:02;5.20;;;4.60;;
6689;SDS011;3382;51.576;8.076;2023-05-10T15:41:28;6.70;;;5.10;;
6689;SDS011;3382;51.576;8.076;2023-05-10T15:43:54;5.40;;;4.67;;
6689;SDS011;3382;51.576;8.076;2023-05-10T15:46:20;7.20;;;5.20;;
6689;SDS011;3382;51.576;8.076;2023-05-10T15:48:46;7.13;;;5.17;;
6689;SDS011;3382;51.576;8.076;2023-05-10T15:51:12;5.20;;;4.70;;